Time;durP1;ratioP1;P1;durP2;ratioP2;P2;SDS_P1;SDS_P2;PMS_P1;PMS_P2;Temp;Humidity;BMP_temperature;BMP_pressure;BME280_temperature;BME280_humidity;BME280_pressure;Samples;Min_cycle;Max_cycle;Signal;HPM_P1;HPM_P2
2022/12/01 00:02:03;;;;;;;;;;;4.30;99.90;;;;;;1889336;75;20371;-75
2022/12/01 00:04:30;;;;;;;;;;;4.30;99.90;;;;;;1895353;74;20179;-76
2022/12/01 00:06:57;;;;;;;;;;;4.40;99.90;;;;;;1895370;76;20106;-75
2022/12/01 00:12:08;;;;;;;;;;;4.40;99.90;;;;;;1882609;74;20340;-75
2022/12/01 00:14:35;;;;;;;;;;;4.30;99.90;;;;;;1891413;75;20123;-75
2022/12/01 00:17:03;;;;;;;;;;;4.30;99.90;;;;;;1894531;75;20145;-76
2022/12/01 00:19:30;;;;;;;;;;;4.40;99.90;;;;;;1895335;74;20113;-76
2022/12/01 00:21:57;;;;;;;;;;;4.40;99.90;;;;;;1885172;74;20327;-76
2022/12/01 00:24:24;;;;;;;;;;;4.40;99.90;;;;;;1879605;75;20364;-77
2022/12/01 00:26:51;;;;;;;;;;;4.40;99.90;;;;;;1884351;74;20259;-76
2022/12/01 00:29:19;;;;;;;;;;;4.30;99.90;;;;;;1895404;76;20114;-76
2022/12/01 00:31:46;;;;;;;;;;;4.40;99.90;;;;;;1893789;75;20199;-77
2022/12/01 00:34:14;;;;;;;;;;;4.30;99.90;;;;;;1888151;74;20168;-77
2022/12/01 00:36:41;;;;;;;;;;;4.40;99.90;;;;;;1892671;75;20180;-77
2022/12/01 00:39:08;;;;;;;;;;;4.40;99.90;;;;;;1885198;74;20402;-76
2022/12/01 00:41:35;;;;;;;;;;;4.30;99.90;;;;;;1888565;75;20313;-76
2022/12/01 00:44:02;;;;;;;;;;;4.30;99.90;;;;;;1883979;76;20098;-77
2022/12/01 00:46:28;;;;;;;;;;;4.30;99.90;;;;;;1886850;74;20337;-77
2022/12/01 00:48:55;;;;;;;;;;;4.30;99.90;;;;;;1893358;74;20114;-77
2022/12/01 00:51:22;;;;;;;;;;;4.30;99.90;;;;;;1891832;74;20348;-75
2022/12/01 00:53:49;;;;;;;;;;;4.30;99.90;;;;;;1892620;75;20132;-76
2022/12/01 00:56:17;;;;;;;;;;;4.40;99.90;;;;;;1882351;74;20126;-76
2022/12/01 00:58:44;;;;;;;;;;;4.30;99.90;;;;;;1882564;74;20125;-76
2022/12/01 01:01:10;;;;;;;;;;;4.20;99.90;;;;;;1887751;74;20336;-76
2022/12/01 01:03:37;;;;;;;;;;;4.20;99.90;;;;;;1885784;76;20124;-76
2022/12/01 01:06:05;;;;;;;;;;;4.30;99.90;;;;;;1879811;76;20368;-76
2022/12/01 01:08:31;;;;;;;;;;;4.30;99.90;;;;;;1888198;76;20147;-75
2022/12/01 01:10:58;;;;;;;;;;;4.30;99.90;;;;;;1877787;74;20109;-74
2022/12/01 01:13:25;;;;;;;;;;;4.20;99.90;;;;;;1870773;76;20321;-76
2022/12/01 01:15:59;;;;;;;;;;;4.30;99.90;;;;;;1887765;74;20149;-74
2022/12/01 01:18:26;;;;;;;;;;;4.20;99.90;;;;;;1889844;75;20180;-76
2022/12/01 01:20:57;;;;;;;;;;;4.20;99.90;;;;;;1895410;74;20123;-76
2022/12/01 01:23:23;;;;;;;;;;;4.20;99.90;;;;;;1882034;75;20164;-76
2022/12/01 01:25:50;;;;;;;;;;;4.20;99.90;;;;;;1885538;75;20372;-75
2022/12/01 01:28:18;;;;;;;;;;;4.20;99.90;;;;;;1884565;74;20110;-75
2022/12/01 01:30:45;;;;;;;;;;;4.20;99.90;;;;;;1892786;74;20383;-76
2022/12/01 01:33:12;;;;;;;;;;;4.20;99.90;;;;;;1895464;76;20136;-75
2022/12/01 01:35:39;;;;;;;;;;;4.20;99.90;;;;;;1895387;74;20122;-75
2022/12/01 01:38:05;;;;;;;;;;;4.20;99.90;;;;;;1894186;74;20172;-75
2022/12/01 01:40:32;;;;;;;;;;;4.20;99.90;;;;;;1881499;74;20128;-75
2022/12/01 01:42:59;;;;;;;;;;;4.30;99.90;;;;;;1892397;74;20118;-75
2022/12/01 01:45:27;;;;;;;;;;;4.30;99.90;;;;;;1886893;75;20117;-75
2022/12/01 01:47:54;;;;;;;;;;;4.20;99.90;;;;;;1895389;75;20121;-77
2022/12/01 01:50:22;;;;;;;;;;;4.20;99.90;;;;;;1895442;75;20121;-76
2022/12/01 01:52:50;;;;;;;;;;;4.20;99.90;;;;;;1881955;76;20124;-75
2022/12/01 01:55:17;;;;;;;;;;;4.20;99.90;;;;;;1882286;76;20171;-75
2022/12/01 01:57:43;;;;;;;;;;;4.20;99.90;;;;;;1882437;74;20200;-75
2022/12/01 02:00:11;;;;;;;;;;;4.20;99.90;;;;;;1885486;76;20109;-76
2022/12/01 02:02:39;;;;;;;;;;;4.30;99.90;;;;;;1879724;76;20116;-75
2022/12/01 02:05:09;;;;;;;;;;;4.40;99.90;;;;;;1892703;74;20363;-75
2022/12/01 02:07:34;;;;;;;;;;;4.30;99.90;;;;;;1888640;74;20207;-76
2022/12/01 02:10:01;;;;;;;;;;;4.30;99.90;;;;;;1891221;74;20333;-75
2022/12/01 02:12:29;;;;;;;;;;;4.30;99.90;;;;;;1885362;74;20124;-74
2022/12/01 02:15:07;;;;;;;;;;;4.20;99.90;;;;;;1888571;75;20257;-75
2022/12/01 02:17:44;;;;;;;;;;;4.20;99.90;;;;;;1882868;75;20164;-76
2022/12/01 02:20:19;;;;;;;;;;;4.20;99.90;;;;;;1889697;75;20128;-76
2022/12/01 02:23:03;;;;;;;;;;;4.20;99.90;;;;;;1886565;74;20164;-76
2022/12/01 02:25:41;;;;;;;;;;;4.30;99.90;;;;;;1885845;76;20348;-76
2022/12/01 02:28:12;;;;;;;;;;;4.20;99.90;;;;;;1879970;76;20376;-77
2022/12/01 02:30:40;;;;;;;;;;;4.20;99.90;;;;;;1892706;75;20396;-75
2022/12/01 02:33:08;;;;;;;;;;;4.10;99.90;;;;;;1882228;74;20183;-77
2022/12/01 02:35:46;;;;;;;;;;;4.10;99.90;;;;;;1882011;74;20374;-75
2022/12/01 02:38:26;;;;;;;;;;;4.20;99.90;;;;;;1879073;75;20344;-75
2022/12/01 02:41:10;;;;;;;;;;;4.20;99.90;;;;;;1888286;74;20125;-75
2022/12/01 02:43:44;;;;;;;;;;;4.00;99.90;;;;;;1895269;74;20223;-74
2022/12/01 02:46:30;;;;;;;;;;;4.00;99.90;;;;;;1888328;74;20344;-75
2022/12/01 02:48:58;;;;;;;;;;;4.10;99.90;;;;;;1889756;75;20122;-76
2022/12/01 02:51:27;;;;;;;;;;;4.00;99.90;;;;;;1895336;76;20145;-75
2022/12/01 02:53:55;;;;;;;;;;;4.00;99.90;;;;;;1889818;74;20118;-75
2022/12/01 02:56:22;;;;;;;;;;;4.00;99.90;;;;;;1887705;74;20181;-76
2022/12/01 02:58:49;;;;;;;;;;;4.10;99.90;;;;;;1891826;76;20140;-76
2022/12/01 03:01:18;;;;;;;;;;;4.10;99.90;;;;;;1894155;74;20158;-76
2022/12/01 03:03:46;;;;;;;;;;;4.10;99.90;;;;;;1880320;75;20364;-77
2022/12/01 03:06:21;;;;;;;;;;;4.00;99.90;;;;;;1882428;75;20164;-77
2022/12/01 03:08:49;;;;;;;;;;;4.00;99.90;;;;;;1892656;74;20198;-76
2022/12/01 03:11:25;;;;;;;;;;;4.00;99.90;;;;;;1887811;74;20121;-77
2022/12/01 03:14:00;;;;;;;;;;;4.00;99.90;;;;;;1888067;74;20147;-75
2022/12/01 03:16:34;;;;;;;;;;;4.00;99.90;;;;;;1863982;76;20215;-76
2022/12/01 03:19:05;;;;;;;;;;;4.00;99.90;;;;;;1879614;76;20124;-75
2022/12/01 03:21:39;;;;;;;;;;;3.80;99.90;;;;;;1889362;75;20209;-76
2022/12/01 03:24:16;;;;;;;;;;;3.80;99.90;;;;;;1893276;74;20144;-76
2022/12/01 03:26:45;;;;;;;;;;;3.80;99.90;;;;;;1882548;76;20122;-76
2022/12/01 03:29:15;;;;;;;;;;;3.80;99.90;;;;;;1882127;74;20155;-77
2022/12/01 03:31:43;;;;;;;;;;;3.80;99.90;;;;;;1880886;76;20155;-75
2022/12/01 03:34:14;;;;;;;;;;;3.90;99.90;;;;;;1884300;75;20132;-76
2022/12/01 03:36:45;;;;;;;;;;;3.80;99.90;;;;;;1880870;74;20180;-75
2022/12/01 03:39:13;;;;;;;;;;;3.90;99.90;;;;;;1882501;74;20152;-75
2022/12/01 03:41:42;;;;;;;;;;;3.90;99.90;;;;;;1885356;76;20244;-75
2022/12/01 03:44:10;;;;;;;;;;;3.80;99.90;;;;;;1889165;75;20156;-76
2022/12/01 03:46:57;;;;;;;;;;;3.70;99.90;;;;;;1888230;74;20192;-74
2022/12/01 03:49:24;;;;;;;;;;;3.80;99.90;;;;;;1879520;76;20374;-75
2022/12/01 03:51:54;;;;;;;;;;;3.70;99.90;;;;;;1882388;75;20329;-76
2022/12/01 03:54:22;;;;;;;;;;;3.70;99.90;;;;;;1878966;74;20105;-76
2022/12/01 03:56:51;;;;;;;;;;;3.60;99.90;;;;;;1876746;75;20373;-75
2022/12/01 03:59:18;;;;;;;;;;;3.70;99.90;;;;;;1889175;75;20126;-75
2022/12/01 04:01:45;;;;;;;;;;;3.70;99.90;;;;;;1888805;74;20129;-75
2022/12/01 04:04:12;;;;;;;;;;;3.70;99.90;;;;;;1892592;74;20392;-74
2022/12/01 04:06:39;;;;;;;;;;;3.70;99.90;;;;;;1881053;75;20217;-76
2022/12/01 04:09:06;;;;;;;;;;;3.70;99.90;;;;;;1882180;74;20328;-75
2022/12/01 04:14:18;;;;;;;;;;;3.70;99.90;;;;;;1895233;75;20417;-76
2022/12/01 04:16:44;;;;;;;;;;;3.80;99.90;;;;;;1883862;74;20141;-75
2022/12/01 04:19:11;;;;;;;;;;;3.90;99.90;;;;;;1879871;76;20379;-76
2022/12/01 04:21:38;;;;;;;;;;;3.80;99.90;;;;;;1890563;74;20118;-75
2022/12/01 04:24:05;;;;;;;;;;;3.80;99.90;;;;;;1882689;74;20328;-75
2022/12/01 04:26:32;;;;;;;;;;;3.90;99.90;;;;;;1879586;76;20190;-75
2022/12/01 04:28:59;;;;;;;;;;;3.90;99.90;;;;;;1882430;74;20126;-75
2022/12/01 04:31:26;;;;;;;;;;;3.80;99.90;;;;;;1882550;74;20117;-76
2022/12/01 04:33:56;;;;;;;;;;;3.90;99.90;;;;;;1890445;74;20367;-76
2022/12/01 04:36:23;;;;;;;;;;;3.90;99.90;;;;;;1892267;75;20106;-75
2022/12/01 04:38:50;;;;;;;;;;;3.90;99.90;;;;;;1895223;76;20219;-75
2022/12/01 04:41:17;;;;;;;;;;;3.90;99.90;;;;;;1888336;75;20214;-75
2022/12/01 04:43:43;;;;;;;;;;;3.80;99.90;;;;;;1887894;75;20114;-75
2022/12/01 04:46:10;;;;;;;;;;;3.90;99.90;;;;;;1892607;74;20110;-76
2022/12/01 04:48:37;;;;;;;;;;;3.90;99.90;;;;;;1883353;76;20285;-76
2022/12/01 04:51:05;;;;;;;;;;;3.90;99.90;;;;;;1879620;76;20146;-74
2022/12/01 04:53:31;;;;;;;;;;;3.80;99.90;;;;;;1882677;74;20152;-76
2022/12/01 04:56:01;;;;;;;;;;;3.70;99.90;;;;;;1884219;74;20156;-75
2022/12/01 04:58:28;;;;;;;;;;;3.70;99.90;;;;;;1895349;75;20146;-75
2022/12/01 05:00:55;;;;;;;;;;;3.70;99.90;;;;;;1881056;75;20174;-76
2022/12/01 05:03:21;;;;;;;;;;;3.80;99.90;;;;;;1883496;75;20122;-76
2022/12/01 05:05:48;;;;;;;;;;;3.80;99.90;;;;;;1881105;74;20189;-76
2022/12/01 05:08:15;;;;;;;;;;;3.80;99.90;;;;;;1879606;76;20146;-76
2022/12/01 05:10:41;;;;;;;;;;;3.90;99.90;;;;;;1885017;75;20124;-77
2022/12/01 05:13:08;;;;;;;;;;;3.80;99.90;;;;;;1892879;75;20110;-76
2022/12/01 05:15:35;;;;;;;;;;;3.90;99.90;;;;;;1895403;76;20102;-75
2022/12/01 05:18:01;;;;;;;;;;;3.80;99.90;;;;;;1889740;74;20110;-77
2022/12/01 05:23:13;;;;;;;;;;;3.70;99.90;;;;;;1895253;74;20135;-75
2022/12/01 05:25:41;;;;;;;;;;;3.70;99.90;;;;;;1882356;76;20394;-74
2022/12/01 05:28:08;;;;;;;;;;;3.70;99.90;;;;;;1882515;76;20331;-75
2022/12/01 05:30:34;;;;;;;;;;;3.70;99.90;;;;;;1892985;74;20122;-75
2022/12/01 05:33:02;;;;;;;;;;;3.80;99.90;;;;;;1889743;74;20347;-75
2022/12/01 05:35:29;;;;;;;;;;;3.80;99.90;;;;;;1884770;76;20313;-75
2022/12/01 05:37:55;;;;;;;;;;;3.80;99.90;;;;;;1891765;74;20110;-75
2022/12/01 05:40:22;;;;;;;;;;;3.80;99.90;;;;;;1887696;76;20325;-78
2022/12/01 05:42:49;;;;;;;;;;;3.80;99.90;;;;;;1885065;74;20116;-76
2022/12/01 05:45:15;;;;;;;;;;;3.70;99.90;;;;;;1893749;75;20389;-75
2022/12/01 05:47:42;;;;;;;;;;;3.70;99.90;;;;;;1889646;74;20191;-73
2022/12/01 05:50:09;;;;;;;;;;;3.90;99.90;;;;;;1883298;75;20372;-77
2022/12/01 05:52:35;;;;;;;;;;;3.90;99.90;;;;;;1881528;75;20101;-76
2022/12/01 05:55:03;;;;;;;;;;;3.80;99.90;;;;;;1883581;75;20400;-77
2022/12/01 05:57:30;;;;;;;;;;;3.80;99.90;;;;;;1887445;74;20317;-78
2022/12/01 05:59:57;;;;;;;;;;;3.70;99.90;;;;;;1888805;75;20292;-78
2022/12/01 06:02:25;;;;;;;;;;;3.80;99.90;;;;;;1882616;76;20155;-77
2022/12/01 06:04:52;;;;;;;;;;;3.80;99.90;;;;;;1889610;75;20122;-78
2022/12/01 06:07:21;;;;;;;;;;;3.70;99.90;;;;;;1881015;74;20128;-78
2022/12/01 06:09:47;;;;;;;;;;;3.70;99.90;;;;;;1887594;74;20153;-78
2022/12/01 06:12:14;;;;;;;;;;;3.70;99.90;;;;;;1883290;75;20162;-77
2022/12/01 06:14:41;;;;;;;;;;;3.70;99.90;;;;;;1887662;74;20160;-78
2022/12/01 06:17:07;;;;;;;;;;;3.70;99.90;;;;;;1889896;74;20169;-78
2022/12/01 06:19:38;;;;;;;;;;;3.70;99.90;;;;;;1886920;75;20106;-78
2022/12/01 06:22:04;;;;;;;;;;;3.80;99.90;;;;;;1885213;74;20224;-77
2022/12/01 06:24:31;;;;;;;;;;;3.80;99.90;;;;;;1882720;74;20330;-77
2022/12/01 06:26:58;;;;;;;;;;;3.80;99.90;;;;;;1885184;74;20188;-77
2022/12/01 06:29:26;;;;;;;;;;;3.80;99.90;;;;;;1879765;74;20120;-76
2022/12/01 06:31:53;;;;;;;;;;;3.70;99.90;;;;;;1879807;74;20140;-76
2022/12/01 06:34:20;;;;;;;;;;;3.70;99.90;;;;;;1879716;74;20144;-77
2022/12/01 06:36:46;;;;;;;;;;;3.80;99.90;;;;;;1882659;74;20132;-78
2022/12/01 06:39:14;;;;;;;;;;;3.80;99.90;;;;;;1885427;75;20124;-76
2022/12/01 06:41:41;;;;;;;;;;;3.80;99.90;;;;;;1879573;76;20116;-75
2022/12/01 06:44:08;;;;;;;;;;;3.80;99.90;;;;;;1882534;74;20165;-79
2022/12/01 06:46:34;;;;;;;;;;;3.70;99.90;;;;;;1892451;74;20329;-78
2022/12/01 06:49:01;;;;;;;;;;;3.70;99.90;;;;;;1883955;74;20156;-79
2022/12/01 06:51:29;;;;;;;;;;;3.80;99.90;;;;;;1884867;74;20148;-76
2022/12/01 06:53:56;;;;;;;;;;;3.80;99.90;;;;;;1882566;76;20214;-76
2022/12/01 06:56:22;;;;;;;;;;;3.70;99.90;;;;;;1887393;74;20110;-77
2022/12/01 06:58:49;;;;;;;;;;;3.80;99.90;;;;;;1885232;75;20125;-77
2022/12/01 07:01:16;;;;;;;;;;;3.80;99.90;;;;;;1885513;75;20132;-79
2022/12/01 07:03:44;;;;;;;;;;;3.90;99.90;;;;;;1885638;74;20170;-79
2022/12/01 07:06:11;;;;;;;;;;;3.80;99.90;;;;;;1879515;76;20120;-78
2022/12/01 07:08:38;;;;;;;;;;;3.90;99.90;;;;;;1879688;76;20210;-77
2022/12/01 07:11:06;;;;;;;;;;;3.90;99.90;;;;;;1894340;76;20110;-78
2022/12/01 07:13:33;;;;;;;;;;;3.80;99.90;;;;;;1889752;74;20120;-78
2022/12/01 07:16:00;;;;;;;;;;;3.90;99.90;;;;;;1856363;75;20122;-79
2022/12/01 07:18:27;;;;;;;;;;;4.00;99.90;;;;;;1894752;74;20191;-79
2022/12/01 07:20:55;;;;;;;;;;;4.00;99.90;;;;;;1881716;76;20121;-79
2022/12/01 07:23:22;;;;;;;;;;;3.80;99.90;;;;;;1882705;74;20106;-79
2022/12/01 07:25:50;;;;;;;;;;;3.70;99.90;;;;;;1886776;75;20105;-78
2022/12/01 07:28:17;;;;;;;;;;;3.70;99.90;;;;;;1887319;75;20267;-77
2022/12/01 07:30:44;;;;;;;;;;;3.70;99.90;;;;;;1880188;74;20196;-79
2022/12/01 07:33:10;;;;;;;;;;;3.70;99.90;;;;;;1885037;76;20128;-78
2022/12/01 07:35:37;;;;;;;;;;;3.80;99.90;;;;;;1880401;76;20147;-79
2022/12/01 07:38:04;;;;;;;;;;;3.90;99.90;;;;;;1889790;75;20117;-79
2022/12/01 07:40:31;;;;;;;;;;;4.00;99.90;;;;;;1891808;74;20116;-78
2022/12/01 07:42:57;;;;;;;;;;;4.00;99.90;;;;;;1879169;76;20314;-78
2022/12/01 07:45:24;;;;;;;;;;;3.90;99.90;;;;;;1884379;74;20124;-76
2022/12/01 07:47:53;;;;;;;;;;;4.00;99.90;;;;;;1879647;76;20308;-77
2022/12/01 07:50:20;;;;;;;;;;;4.00;99.90;;;;;;1892401;74;20201;-77
2022/12/01 07:52:50;;;;;;;;;;;4.00;99.90;;;;;;1886135;75;20128;-77
2022/12/01 07:55:17;;;;;;;;;;;4.00;99.90;;;;;;1888067;74;20117;-78
2022/12/01 07:57:43;;;;;;;;;;;4.10;99.90;;;;;;1890191;74;20336;-77
2022/12/01 08:00:11;;;;;;;;;;;4.10;99.90;;;;;;1892306;75;20128;-77
2022/12/01 08:02:37;;;;;;;;;;;4.10;99.90;;;;;;1888178;74;20160;-78
2022/12/01 08:05:04;;;;;;;;;;;4.10;99.90;;;;;;1880116;76;20120;-78
2022/12/01 08:07:31;;;;;;;;;;;4.10;99.90;;;;;;1893697;74;20118;-78
2022/12/01 08:09:58;;;;;;;;;;;4.10;99.90;;;;;;1883247;75;20366;-78
2022/12/01 08:12:24;;;;;;;;;;;4.10;99.90;;;;;;1879840;76;20120;-78
2022/12/01 08:14:51;;;;;;;;;;;4.10;99.90;;;;;;1879861;74;20151;-78
2022/12/01 08:17:18;;;;;;;;;;;4.10;99.90;;;;;;1884793;76;20191;-78
2022/12/01 08:19:44;;;;;;;;;;;4.10;99.90;;;;;;1888988;74;20374;-78
2022/12/01 08:22:11;;;;;;;;;;;4.10;99.90;;;;;;1882587;74;20199;-78
2022/12/01 08:24:38;;;;;;;;;;;4.20;99.90;;;;;;1890393;74;20391;-76
2022/12/01 08:27:05;;;;;;;;;;;4.20;99.90;;;;;;1894585;74;20113;-77
2022/12/01 08:29:31;;;;;;;;;;;4.20;99.90;;;;;;1879883;76;20124;-79
2022/12/01 08:31:58;;;;;;;;;;;4.00;99.90;;;;;;1882660;74;20184;-78
2022/12/01 08:34:25;;;;;;;;;;;4.10;99.90;;;;;;1884152;74;20121;-78
2022/12/01 08:36:51;;;;;;;;;;;4.10;99.90;;;;;;1895240;76;20125;-77
2022/12/01 08:39:18;;;;;;;;;;;4.20;99.90;;;;;;1886436;74;20249;-77
2022/12/01 08:41:45;;;;;;;;;;;4.10;99.90;;;;;;1882015;75;20230;-78
2022/12/01 08:44:11;;;;;;;;;;;4.10;99.90;;;;;;1894598;74;20219;-78
2022/12/01 08:46:38;;;;;;;;;;;4.10;99.90;;;;;;1886955;74;20397;-79
2022/12/01 08:49:05;;;;;;;;;;;4.10;99.90;;;;;;1890745;75;20199;-79
2022/12/01 08:51:34;;;;;;;;;;;4.20;99.90;;;;;;1880958;76;20361;-77
2022/12/01 08:54:01;;;;;;;;;;;4.40;99.90;;;;;;1894947;75;20189;-78
2022/12/01 08:56:31;;;;;;;;;;;4.40;99.90;;;;;;1879391;74;20375;-78
2022/12/01 08:58:58;;;;;;;;;;;4.40;99.90;;;;;;1879495;76;20178;-77
2022/12/01 09:01:25;;;;;;;;;;;4.30;99.90;;;;;;1891013;74;20349;-77
2022/12/01 09:04:04;;;;;;;;;;;4.30;99.90;;;;;;1879691;76;20104;-79
2022/12/01 09:06:40;;;;;;;;;;;4.50;99.90;;;;;;1890782;74;20182;-79
2022/12/01 09:09:08;;;;;;;;;;;4.50;99.90;;;;;;1880336;74;20155;-80
2022/12/01 09:11:34;;;;;;;;;;;4.50;99.90;;;;;;1886871;74;20126;-78
2022/12/01 09:14:01;;;;;;;;;;;4.40;99.90;;;;;;1894614;75;20369;-78
2022/12/01 09:16:28;;;;;;;;;;;4.40;99.90;;;;;;1888596;76;20243;-77
2022/12/01 09:18:55;;;;;;;;;;;4.30;99.90;;;;;;1886543;74;20211;-76
2022/12/01 09:21:22;;;;;;;;;;;4.30;99.90;;;;;;1886849;74;20116;-78
2022/12/01 09:23:49;;;;;;;;;;;4.20;99.90;;;;;;1887005;74;20123;-78
2022/12/01 09:26:17;;;;;;;;;;;4.30;99.90;;;;;;1892132;75;20154;-78
2022/12/01 09:28:48;;;;;;;;;;;4.30;99.90;;;;;;1888278;74;20128;-79
2022/12/01 09:31:15;;;;;;;;;;;4.30;99.90;;;;;;1895687;75;20121;-80
2022/12/01 09:33:41;;;;;;;;;;;4.40;99.90;;;;;;1890488;74;20125;-79
2022/12/01 09:36:09;;;;;;;;;;;4.40;99.90;;;;;;1884310;76;20171;-78
2022/12/01 09:38:37;;;;;;;;;;;4.40;99.90;;;;;;1895632;74;20299;-76
2022/12/01 09:41:20;;;;;;;;;;;4.30;99.90;;;;;;1895396;74;20364;-78
2022/12/01 09:43:51;;;;;;;;;;;4.40;99.90;;;;;;1885524;76;20147;-78
2022/12/01 09:46:19;;;;;;;;;;;4.30;99.90;;;;;;1879663;76;20183;-76
2022/12/01 09:48:46;;;;;;;;;;;4.20;99.90;;;;;;1884241;74;20122;-77
2022/12/01 09:51:14;;;;;;;;;;;4.40;99.90;;;;;;1895584;76;20156;-77
2022/12/01 09:53:41;;;;;;;;;;;4.40;99.90;;;;;;1890361;75;20120;-78
2022/12/01 09:56:09;;;;;;;;;;;4.50;99.90;;;;;;1882649;75;20239;-77
2022/12/01 09:58:36;;;;;;;;;;;4.50;99.90;;;;;;1876560;74;20306;-78
2022/12/01 10:01:03;;;;;;;;;;;4.40;99.90;;;;;;1888585;75;20106;-77
2022/12/01 10:03:31;;;;;;;;;;;4.50;99.90;;;;;;1880565;75;20332;-77
2022/12/01 10:06:07;;;;;;;;;;;4.60;99.90;;;;;;1883953;76;20395;-78
2022/12/01 10:08:34;;;;;;;;;;;4.50;99.90;;;;;;1893184;74;20197;-78
2022/12/01 10:11:03;;;;;;;;;;;4.60;99.90;;;;;;1883925;74;20190;-75
2022/12/01 10:13:31;;;;;;;;;;;4.60;99.90;;;;;;1889827;75;20314;-77
2022/12/01 10:15:59;;;;;;;;;;;4.80;99.90;;;;;;1884125;74;20186;-77
2022/12/01 10:18:43;;;;;;;;;;;4.80;99.90;;;;;;1885979;74;20114;-78
2022/12/01 10:21:17;;;;;;;;;;;4.80;99.90;;;;;;1888530;74;20120;-77
2022/12/01 10:23:46;;;;;;;;;;;4.90;99.90;;;;;;1886225;74;20180;-75
2022/12/01 10:26:14;;;;;;;;;;;5.00;99.90;;;;;;1891173;74;20164;-77
2022/12/01 10:28:56;;;;;;;;;;;5.10;99.90;;;;;;1884287;74;20210;-77
2022/12/01 10:31:37;;;;;;;;;;;5.10;99.90;;;;;;1884656;74;20142;-78
2022/12/01 10:34:05;;;;;;;;;;;5.00;99.90;;;;;;1885959;75;20106;-78
2022/12/01 10:36:32;;;;;;;;;;;4.90;99.90;;;;;;1895521;75;20176;-80
2022/12/01 10:39:00;;;;;;;;;;;5.00;99.90;;;;;;1887004;74;20148;-78
2022/12/01 10:41:27;;;;;;;;;;;4.90;99.90;;;;;;1886951;74;20155;-77
2022/12/01 10:43:56;;;;;;;;;;;4.80;99.90;;;;;;1879750;76;20147;-78
2022/12/01 10:46:24;;;;;;;;;;;4.60;99.90;;;;;;1885517;76;20144;-77
2022/12/01 10:48:57;;;;;;;;;;;4.50;99.90;;;;;;1896047;74;20118;-77
2022/12/01 10:51:24;;;;;;;;;;;4.60;99.90;;;;;;1895433;74;20199;-78
2022/12/01 10:53:54;;;;;;;;;;;4.90;99.90;;;;;;1892655;75;20159;-76
2022/12/01 10:56:20;;;;;;;;;;;4.80;99.90;;;;;;1871873;75;20210;-77
2022/12/01 10:58:54;;;;;;;;;;;4.80;99.90;;;;;;1918764;73;20160;-77
2022/12/01 11:01:22;;;;;;;;;;;4.80;99.90;;;;;;1909721;74;20377;-78
2022/12/01 11:03:50;;;;;;;;;;;4.80;99.90;;;;;;1912036;73;20373;-76
2022/12/01 11:06:19;;;;;;;;;;;4.90;99.90;;;;;;1913528;73;20137;-77
2022/12/01 11:08:48;;;;;;;;;;;4.80;99.90;;;;;;1913493;73;20349;-78
2022/12/01 11:11:24;;;;;;;;;;;4.80;99.90;;;;;;1916171;73;20127;-78
2022/12/01 11:13:51;;;;;;;;;;;4.80;99.90;;;;;;1914808;73;20122;-77
2022/12/01 11:16:38;;;;;;;;;;;4.90;99.90;;;;;;1913804;73;20122;-77
2022/12/01 11:19:08;;;;;;;;;;;5.00;99.90;;;;;;1917375;73;20122;-77
2022/12/01 11:21:35;;;;;;;;;;;5.00;99.90;;;;;;1912634;73;20111;-77
2022/12/01 11:24:02;;;;;;;;;;;5.00;99.90;;;;;;1884199;75;20334;-77
2022/12/01 11:26:31;;;;;;;;;;;5.10;99.90;;;;;;1886509;74;20154;-77
2022/12/01 11:28:58;;;;;;;;;;;5.10;99.90;;;;;;1904071;74;20126;-78
2022/12/01 11:31:39;;;;;;;;;;;5.10;99.90;;;;;;1911159;73;20211;-76
2022/12/01 11:34:05;;;;;;;;;;;5.10;99.90;;;;;;1912300;74;20111;-76
2022/12/01 11:36:42;;;;;;;;;;;5.20;99.90;;;;;;1913280;73;20164;-78
2022/12/01 11:39:10;;;;;;;;;;;5.20;99.90;;;;;;1912055;75;20102;-77
2022/12/01 11:41:37;;;;;;;;;;;5.30;99.90;;;;;;1913912;73;20126;-77
2022/12/01 11:44:04;;;;;;;;;;;5.50;99.90;;;;;;1912388;75;20326;-76
2022/12/01 11:46:32;;;;;;;;;;;5.50;99.90;;;;;;1885452;74;20169;-77
2022/12/01 11:48:59;;;;;;;;;;;5.40;99.90;;;;;;1906910;73;20158;-77
2022/12/01 11:51:31;;;;;;;;;;;5.20;99.90;;;;;;1903358;75;20141;-77
2022/12/01 11:54:08;;;;;;;;;;;5.10;99.90;;;;;;1885778;75;20139;-78
2022/12/01 11:56:39;;;;;;;;;;;5.20;99.90;;;;;;1916385;73;20107;-76
2022/12/01 11:59:06;;;;;;;;;;;5.40;99.90;;;;;;1913811;73;20123;-77
2022/12/01 12:01:50;;;;;;;;;;;5.40;99.90;;;;;;1911479;73;20118;-76
2022/12/01 12:04:31;;;;;;;;;;;5.30;99.90;;;;;;1914089;74;20118;-78
2022/12/01 12:07:02;;;;;;;;;;;5.30;99.90;;;;;;1912380;75;20156;-79
2022/12/01 12:09:46;;;;;;;;;;;5.30;99.90;;;;;;1917096;73;20266;-78
2022/12/01 12:12:22;;;;;;;;;;;5.40;99.90;;;;;;1916204;74;20186;-78
2022/12/01 12:14:50;;;;;;;;;;;5.40;99.90;;;;;;1905667;74;20175;-77
2022/12/01 12:17:18;;;;;;;;;;;5.40;99.90;;;;;;1909148;73;20200;-76
2022/12/01 12:19:52;;;;;;;;;;;5.40;99.90;;;;;;1915283;73;20115;-79
2022/12/01 12:22:27;;;;;;;;;;;5.50;99.90;;;;;;1913486;73;20181;-79
2022/12/01 12:24:55;;;;;;;;;;;5.40;99.90;;;;;;1914595;73;20118;-80
2022/12/01 12:27:40;;;;;;;;;;;5.50;99.90;;;;;;1912124;73;20360;-80
2022/12/01 12:30:12;;;;;;;;;;;5.40;99.90;;;;;;1912626;75;20362;-79
2022/12/01 12:32:57;;;;;;;;;;;5.40;99.90;;;;;;1911854;73;20118;-78
2022/12/01 12:35:28;;;;;;;;;;;5.30;99.90;;;;;;1915229;73;20165;-79
2022/12/01 12:38:01;;;;;;;;;;;5.40;99.90;;;;;;1912783;74;20114;-78
2022/12/01 12:40:43;;;;;;;;;;;5.40;99.90;;;;;;1910496;75;20156;-80
2022/12/01 12:43:11;;;;;;;;;;;5.30;99.90;;;;;;1912343;75;20146;-79
2022/12/01 12:45:39;;;;;;;;;;;5.40;99.90;;;;;;1913082;73;20387;-84
2022/12/01 12:48:08;;;;;;;;;;;5.40;99.90;;;;;;1915750;73;20126;-85
2022/12/01 12:50:36;;;;;;;;;;;5.40;99.90;;;;;;1913955;73;20156;-86
2022/12/01 12:53:04;;;;;;;;;;;5.40;99.90;;;;;;1915413;73;20122;-84
2022/12/01 12:55:32;;;;;;;;;;;5.40;99.90;;;;;;1917521;73;20160;-82
2022/12/01 12:58:06;;;;;;;;;;;5.50;99.90;;;;;;1914855;73;20158;-79
2022/12/01 13:00:33;;;;;;;;;;;5.50;99.90;;;;;;1911902;73;20330;-81
2022/12/01 13:03:07;;;;;;;;;;;5.50;99.90;;;;;;1914404;73;20144;-81
2022/12/01 13:05:35;;;;;;;;;;;5.20;99.90;;;;;;1912169;73;20118;-80
2022/12/01 13:08:04;;;;;;;;;;;5.20;99.90;;;;;;1920063;73;20455;-80
2022/12/01 13:10:38;;;;;;;;;;;5.40;99.90;;;;;;1915011;73;20263;-79
2022/12/01 13:13:18;;;;;;;;;;;5.40;99.90;;;;;;1910388;74;20171;-81
2022/12/01 13:15:47;;;;;;;;;;;5.50;99.90;;;;;;1918560;73;20341;-82
2022/12/01 13:18:18;;;;;;;;;;;5.70;99.90;;;;;;1914182;73;20118;-82
2022/12/01 13:20:45;;;;;;;;;;;5.60;99.90;;;;;;1918595;73;20218;-83
2022/12/01 13:23:14;;;;;;;;;;;5.60;99.90;;;;;;1917318;73;20114;-82
2022/12/01 13:25:41;;;;;;;;;;;5.60;99.90;;;;;;1887833;75;20148;-83
2022/12/01 13:28:18;;;;;;;;;;;5.70;99.90;;;;;;1912653;74;20156;-83
2022/12/01 13:30:58;;;;;;;;;;;5.70;99.90;;;;;;1915171;73;20126;-81
2022/12/01 13:33:25;;;;;;;;;;;5.70;99.90;;;;;;1914984;73;20122;-78
2022/12/01 13:35:52;;;;;;;;;;;5.80;99.90;;;;;;1912261;74;20174;-77
2022/12/01 13:38:32;;;;;;;;;;;5.70;99.90;;;;;;1914602;73;20191;-76
2022/12/01 13:41:19;;;;;;;;;;;5.70;99.90;;;;;;1914059;73;20392;-78
2022/12/01 13:43:53;;;;;;;;;;;5.80;99.90;;;;;;1909288;73;20207;-77
2022/12/01 13:46:21;;;;;;;;;;;5.80;99.90;;;;;;1911953;73;20119;-78
2022/12/01 13:48:50;;;;;;;;;;;5.80;99.90;;;;;;1915523;73;20126;-80
2022/12/01 13:51:18;;;;;;;;;;;5.70;99.90;;;;;;1913699;73;20119;-80
2022/12/01 13:53:55;;;;;;;;;;;5.70;99.90;;;;;;1913284;73;20116;-78
